Аэропорт: Курумоч. Самара

ICAO: UWWW

METAR:
2018/07/16 19:30
UWWW 161930Z 15002MPS 110V170 9999 FEW033 25/15 Q1007 R05/150055 NOSIG RMK QFE742/0990
METAR:
2018/07/16 18:21
TAF UWWW 161701Z 1618/1718 09006G12MPS 9999 SCT020 BKN100 TX25/1706Z TN21/1701Z 
      TEMPO 1618/1621 3100 -TSRA BKN011CB BKN100 
      TEMPO 1621/1704 05003G09MPS 3100 -SHRA BR BKN011CB 
      TEMPO 1704/1718 13008G16MPS 3100 -TSRA BKN011CB